Time;durP1;ratioP1;P1;durP2;ratioP2;P2;SDS_P1;SDS_P2;PMS_P1;PMS_P2;Temp;Humidity;BMP_temperature;BMP_pressure;BME280_temperature;BME280_humidity;BME280_pressure;Samples;Min_cycle;Max_cycle;Signal;HPM_P1;HPM_P2
2022/01/31 00:00:56;;;;;;;1.90;1.00;;;;;;;3.37;64.57;99860.38;107572;1247;70964;-88
2022/01/31 00:03:26;;;;;;;1.70;1.00;;;;;;;3.35;64.50;99858.73;107538;1247;74325;-82
2022/01/31 00:05:55;;;;;;;1.90;1.10;;;;;;;3.31;64.66;99852.77;107405;1247;59683;-88
2022/01/31 00:08:24;;;;;;;2.10;1.10;;;;;;;3.30;64.56;99854.20;107755;1247;59456;-86
2022/01/31 00:10:58;;;;;;;1.70;0.90;;;;;;;3.31;64.63;99855.15;107711;1246;74836;-86
2022/01/31 00:13:35;;;;;;;2.70;1.20;;;;;;;3.30;64.71;99856.64;107686;1247;72051;-83
2022/01/31 00:16:10;;;;;;;1.60;1.10;;;;;;;3.30;64.81;99856.45;107600;1246;71175;-82
2022/01/31 00:18:40;;;;;;;1.50;1.00;;;;;;;3.30;65.01;99859.03;107660;1247;71585;-81
2022/01/31 00:21:09;;;;;;;1.90;1.20;;;;;;;3.30;65.04;99856.27;107604;1247;59877;-81
2022/01/31 00:23:38;;;;;;;1.60;1.10;;;;;;;3.28;64.75;99858.41;107665;1247;59567;-81
2022/01/31 00:26:10;;;;;;;2.30;1.10;;;;;;;3.24;64.82;99858.88;107757;1247;71729;-83
2022/01/31 00:28:39;;;;;;;1.40;1.20;;;;;;;3.22;64.58;99853.13;107655;1247;70503;-83
2022/01/31 00:31:08;;;;;;;2.90;1.90;;;;;;;3.20;64.57;99849.75;107668;1247;69156;-83
2022/01/31 00:33:37;;;;;;;2.20;1.10;;;;;;;3.22;64.41;99848.98;107373;1247;71506;-83
2022/01/31 00:36:06;;;;;;;2.10;0.90;;;;;;;3.27;64.38;99853.54;107591;1247;60996;-78
2022/01/31 00:38:37;;;;;;;2.20;1.30;;;;;;;3.31;64.10;99853.08;107497;1247;61949;-83
2022/01/31 00:41:05;;;;;;;3.40;1.20;;;;;;;3.29;63.91;99850.80;107542;1247;74886;-81
2022/01/31 00:43:36;;;;;;;2.20;1.30;;;;;;;3.28;63.53;99856.55;107528;1245;71809;-85
2022/01/31 00:46:12;;;;;;;1.70;1.10;;;;;;;3.26;63.86;99854.95;106868;1247;740590;-77
2022/01/31 00:48:45;;;;;;;1.90;1.10;;;;;;;3.25;63.75;99856.04;107561;1245;75362;-87
2022/01/31 00:51:16;;;;;;;1.80;1.00;;;;;;;3.21;63.76;99858.85;107441;1247;59819;-88
2022/01/31 00:53:45;;;;;;;3.10;1.30;;;;;;;3.17;63.99;99855.09;107518;1247;59318;-90
2022/01/31 00:56:14;;;;;;;4.90;1.20;;;;;;;3.17;64.40;99855.79;107567;1247;72517;-87
2022/01/31 00:58:43;;;;;;;1.80;1.10;;;;;;;3.13;64.37;99855.83;107597;1247;72140;-88
2022/01/31 01:01:12;;;;;;;0.90;0.80;;;;;;;3.10;64.13;99853.24;107555;1247;66913;-87
2022/01/31 01:03:52;;;;;;;1.10;0.90;;;;;;;3.03;64.42;99859.48;107642;1247;74683;-90
2022/01/31 01:06:21;;;;;;;1.80;1.20;;;;;;;2.98;64.39;99858.55;107688;1247;61893;-90
2022/01/31 01:08:50;;;;;;;1.70;1.00;;;;;;;2.94;64.52;99852.74;107594;1247;60079;-91
2022/01/31 01:11:19;;;;;;;2.40;1.10;;;;;;;2.89;64.48;99851.63;107750;1247;72715;-90
2022/01/31 01:13:48;;;;;;;1.90;1.10;;;;;;;2.87;64.87;99852.77;107622;1247;71559;-91
2022/01/31 01:16:23;;;;;;;2.00;1.20;;;;;;;2.85;65.12;99853.38;107662;1247;72441;-91
2022/01/31 01:19:04;;;;;;;1.80;1.30;;;;;;;2.84;65.22;99845.89;107648;1247;74513;-90
2022/01/31 01:21:33;;;;;;;1.90;1.00;;;;;;;2.81;65.03;99841.93;107769;1246;59985;-90
2022/01/31 01:24:04;;;;;;;2.00;1.20;;;;;;;2.80;65.06;99843.02;107760;1247;60167;-83
2022/01/31 01:26:34;;;;;;;2.30;1.10;;;;;;;2.80;64.82;99840.28;107775;1247;72481;-87
2022/01/31 01:29:04;;;;;;;1.30;0.90;;;;;;;2.80;64.92;99838.91;107443;1247;71278;-84
2022/01/31 01:31:33;;;;;;;1.30;0.90;;;;;;;2.78;65.25;99836.06;107657;1247;67948;-84
2022/01/31 01:34:03;;;;;;;1.50;0.90;;;;;;;2.83;65.27;99844.06;107597;1247;72901;-84
2022/01/31 01:36:32;;;;;;;1.40;0.90;;;;;;;2.84;65.05;99840.94;107669;1247;59413;-84
2022/01/31 01:39:02;;;;;;;1.50;1.00;;;;;;;2.85;65.19;99841.02;107949;1247;59502;-89
2022/01/31 01:41:32;;;;;;;2.30;1.00;;;;;;;2.83;65.19;99842.67;108132;1247;72834;-84
2022/01/31 01:44:02;;;;;;;1.90;1.00;;;;;;;2.80;65.25;99854.72;108061;1247;71353;-86
2022/01/31 01:46:31;;;;;;;1.30;1.00;;;;;;;2.79;65.47;99856.46;108179;1247;71810;-83
2022/01/31 01:49:01;;;;;;;2.10;1.20;;;;;;;2.76;65.28;99855.42;107967;1246;71696;-84
2022/01/31 01:51:30;;;;;;;1.40;0.90;;;;;;;2.73;65.33;99856.13;107893;1247;59787;-85
2022/01/31 01:54:00;;;;;;;2.10;1.20;;;;;;;2.70;65.64;99855.61;107677;1246;59594;-84
2022/01/31 01:56:29;;;;;;;1.60;1.00;;;;;;;2.65;65.71;99849.80;108055;1246;71679;-83
2022/01/31 01:59:04;;;;;;;1.90;1.20;;;;;;;2.66;65.52;99858.55;108040;1246;70585;-84
2022/01/31 02:01:39;;;;;;;2.90;1.40;;;;;;;2.63;65.26;99854.59;108482;1247;67946;-82
2022/01/31 02:04:08;;;;;;;1.50;1.10;;;;;;;2.67;65.38;99851.65;108288;1247;72280;-83
2022/01/31 02:06:40;;;;;;;1.10;0.90;;;;;;;2.65;65.52;99844.65;109228;1247;59748;-84
2022/01/31 02:09:09;;;;;;;1.50;1.10;;;;;;;2.72;65.46;99845.54;107736;1247;59729;-83
2022/01/31 02:11:38;;;;;;;1.40;1.20;;;;;;;2.70;65.42;99841.35;107771;1247;73306;-83
2022/01/31 02:14:10;;;;;;;2.20;1.30;;;;;;;2.70;65.32;99839.94;107708;1247;71911;-84
2022/01/31 02:16:57;;;;;;;1.50;1.20;;;;;;;2.69;65.32;99847.73;107573;1247;68160;-87
2022/01/31 02:19:38;;;;;;;2.30;1.30;;;;;;;2.70;65.26;99848.37;107516;1247;73293;-86
2022/01/31 02:22:20;;;;;;;1.00;0.80;;;;;;;2.68;65.10;99851.89;107504;1247;60851;-83
2022/01/31 02:26:04;;;;;;;0.90;0.60;;;;;;;2.73;65.18;99854.08;107505;1247;60587;-83
2022/01/31 02:28:48;;;;;;;1.70;1.10;;;;;;;2.77;65.22;99860.52;107673;1247;72201;-84
2022/01/31 02:31:17;;;;;;;1.60;1.00;;;;;;;2.80;65.07;99860.73;107658;1247;70673;-86
2022/01/31 02:33:48;;;;;;;2.00;0.90;;;;;;;2.83;65.02;99865.36;107508;1247;70997;-85
2022/01/31 02:36:18;;;;;;;2.80;1.10;;;;;;;2.83;65.13;99871.21;107658;1247;72137;-87
2022/01/31 02:38:47;;;;;;;1.70;1.10;;;;;;;2.84;65.49;99870.30;107712;1246;59559;-89
2022/01/31 02:41:16;;;;;;;2.00;0.90;;;;;;;2.87;65.69;99863.80;107631;1247;59799;-86
2022/01/31 02:43:49;;;;;;;2.00;0.80;;;;;;;2.94;66.69;99864.95;107499;1247;73485;-85
2022/01/31 02:46:26;;;;;;;2.00;0.90;;;;;;;3.01;66.43;99864.59;107503;1247;70375;-86
2022/01/31 02:49:00;;;;;;;1.10;0.90;;;;;;;3.04;66.18;99860.79;107696;1246;67904;-89
2022/01/31 02:51:32;;;;;;;1.30;0.80;;;;;;;3.05;66.37;99859.51;107539;1247;70884;-83
2022/01/31 02:54:02;;;;;;;1.50;1.20;;;;;;;3.07;65.95;99857.20;107558;1247;59725;-88
2022/01/31 02:56:31;;;;;;;1.30;0.70;;;;;;;3.06;66.02;99860.86;107549;1247;59615;-83
2022/01/31 02:59:00;;;;;;;1.20;0.80;;;;;;;3.05;65.52;99859.91;107491;1246;72900;-84
2022/01/31 03:01:31;;;;;;;1.80;0.90;;;;;;;3.03;65.40;99864.48;107526;1246;70982;-85
2022/01/31 03:04:01;;;;;;;1.70;0.80;;;;;;;3.00;65.87;99864.81;107491;1246;70642;-86
2022/01/31 03:06:30;;;;;;;1.30;0.90;;;;;;;2.97;65.72;99867.73;107453;1247;74730;-85
2022/01/31 03:08:59;;;;;;;0.90;0.70;;;;;;;2.96;65.49;99870.73;107337;1247;60325;-87
2022/01/31 03:11:35;;;;;;;1.00;0.80;;;;;;;2.93;65.72;99887.19;107517;1247;59506;-86
2022/01/31 03:14:09;;;;;;;1.50;0.70;;;;;;;2.97;65.85;99912.45;107586;1246;74851;-85
2022/01/31 03:16:47;;;;;;;1.80;0.80;;;;;;;3.00;65.17;99917.97;107566;1247;71686;-86
2022/01/31 03:19:21;;;;;;;2.10;1.10;;;;;;;2.97;64.92;99922.77;107467;1247;69809;-84
2022/01/31 03:22:01;;;;;;;1.30;0.70;;;;;;;2.95;64.91;99913.27;107706;1247;73343;-86
2022/01/31 03:24:30;;;;;;;1.80;1.10;;;;;;;2.97;64.49;99913.15;107657;1247;60867;-87
2022/01/31 03:26:59;;;;;;;1.40;0.70;;;;;;;2.99;64.92;99917.84;107577;1247;60151;-83
2022/01/31 03:29:29;;;;;;;1.80;0.90;;;;;;;2.94;64.69;99932.22;107587;1246;72760;-78
2022/01/31 03:31:58;;;;;;;2.00;0.90;;;;;;;2.88;65.10;99937.30;107547;1246;71475;-84
2022/01/31 03:34:27;;;;;;;1.80;1.00;;;;;;;2.92;64.54;99938.00;107607;1247;68298;-85
2022/01/31 03:36:56;;;;;;;1.10;0.80;;;;;;;2.86;65.54;99955.16;107524;1246;72913;-80
2022/01/31 03:39:26;;;;;;;1.00;0.70;;;;;;;2.70;67.20;99950.83;107406;1246;59784;-84
2022/01/31 03:41:56;;;;;;;1.00;0.90;;;;;;;2.42;69.33;99952.61;107109;1247;62183;-85
2022/01/31 03:44:25;;;;;;;1.20;0.90;;;;;;;2.17;71.16;99954.56;107343;1246;74671;-81
2022/01/31 03:46:56;;;;;;;2.60;1.00;;;;;;;1.99;72.41;99961.63;107217;1248;69453;-79
2022/01/31 03:49:25;;;;;;;2.00;0.80;;;;;;;1.88;73.09;99964.91;107298;1247;68159;-79
2022/01/31 03:52:05;;;;;;;1.80;1.00;;;;;;;1.79;73.83;99965.52;107303;1247;74399;-80
2022/01/31 03:54:40;;;;;;;6.10;1.10;;;;;;;1.70;73.24;99972.98;107425;1246;60490;-82
2022/01/31 03:57:10;;;;;;;1.80;0.90;;;;;;;1.61;73.67;99983.36;107495;1247;61143;-80
2022/01/31 03:59:52;;;;;;;2.80;1.20;;;;;;;1.53;73.23;99981.15;107474;1246;75418;-81
2022/01/31 04:02:21;;;;;;;1.90;1.00;;;;;;;1.40;74.14;99973.03;107521;1246;71619;-81
2022/01/31 04:04:50;;;;;;;2.70;1.00;;;;;;;1.40;73.51;99968.38;107641;1247;69466;-82
2022/01/31 04:07:19;;;;;;;3.20;1.20;;;;;;;1.39;74.61;99965.19;107628;1246;72355;-80
2022/01/31 04:09:48;;;;;;;2.60;1.20;;;;;;;1.38;74.15;99970.89;107404;1247;59686;-79
2022/01/31 04:12:17;;;;;;;2.20;1.30;;;;;;;1.36;74.18;99961.70;107450;1247;61662;-79
2022/01/31 04:14:45;;;;;;;4.70;1.60;;;;;;;1.27;74.05;99961.26;107409;1247;73510;-79
2022/01/31 04:17:18;;;;;;;1.80;1.20;;;;;;;1.21;73.86;99951.93;107640;1246;70487;-79
2022/01/31 04:19:48;;;;;;;5.60;1.40;;;;;;;1.19;73.95;99954.98;107654;1246;69211;-76
2022/01/31 04:22:19;;;;;;;4.30;1.40;;;;;;;1.17;74.16;99957.45;107522;1246;71431;-78
2022/01/31 04:24:53;;;;;;;4.30;1.40;;;;;;;1.18;75.13;99962.35;107506;1247;59851;-78
2022/01/31 04:27:27;;;;;;;1.80;1.10;;;;;;;1.22;74.88;99969.39;107604;1246;60162;-81
2022/01/31 04:29:56;;;;;;;3.10;1.60;;;;;;;1.22;74.80;99966.13;107565;1247;73972;-82
2022/01/31 04:32:25;;;;;;;4.80;1.60;;;;;;;1.18;76.43;99966.15;107834;1246;72517;-82
2022/01/31 04:34:54;;;;;;;4.50;1.90;;;;;;;1.16;75.14;99969.98;107967;1247;71294;-81
2022/01/31 04:37:23;;;;;;;2.80;1.40;;;;;;;1.15;75.22;99975.19;108352;1247;72635;-80
2022/01/31 04:39:52;;;;;;;3.50;2.00;;;;;;;1.17;75.88;99974.77;107825;1247;62988;-82
2022/01/31 04:42:21;;;;;;;4.70;2.60;;;;;;;1.22;75.88;99975.58;107749;1246;62077;-80
2022/01/31 04:44:50;;;;;;;5.80;2.50;;;;;;;1.23;77.75;99975.51;107664;1246;75379;-80
2022/01/31 04:47:18;;;;;;;6.10;2.30;;;;;;;1.26;77.99;99977.27;107608;1246;73175;-79
2022/01/31 04:49:49;;;;;;;5.40;2.00;;;;;;;1.26;78.96;99977.79;107634;1247;69852;-81
2022/01/31 04:52:17;;;;;;;8.60;2.70;;;;;;;1.26;77.47;99988.41;107657;1246;73881;-81
2022/01/31 04:54:46;;;;;;;4.90;2.30;;;;;;;1.26;76.49;99989.60;107630;1246;59597;-83
2022/01/31 04:57:17;;;;;;;5.80;2.40;;;;;;;1.29;77.28;99997.71;107601;1246;59501;-82
2022/01/31 04:59:45;;;;;;;5.10;2.00;;;;;;;1.37;77.24;99997.55;107577;1246;74149;-81
2022/01/31 05:02:14;;;;;;;5.70;2.30;;;;;;;1.41;77.37;99992.70;107673;1246;70325;-83
2022/01/31 05:04:43;;;;;;;4.00;2.20;;;;;;;1.43;76.64;99984.55;107578;1246;69830;-83
2022/01/31 05:07:12;;;;;;;4.00;2.10;;;;;;;1.38;76.46;99984.44;107548;1247;72671;-76
2022/01/31 05:09:42;;;;;;;4.50;1.80;;;;;;;1.38;75.90;99988.58;107566;1246;59966;-77
2022/01/31 05:12:11;;;;;;;2.20;1.30;;;;;;;1.41;75.96;99993.23;107563;1246;58925;-76
2022/01/31 05:14:40;;;;;;;3.80;1.30;;;;;;;1.49;75.44;99999.52;107546;1246;72934;-80
2022/01/31 05:17:09;;;;;;;3.40;1.50;;;;;;;1.51;75.71;100000.15;107648;1246;72583;-79
2022/01/31 05:19:38;;;;;;;3.50;1.40;;;;;;;1.51;74.99;99998.08;107764;1247;68341;-82
2022/01/31 05:22:07;;;;;;;2.80;1.40;;;;;;;1.51;74.62;100001.88;107824;1246;73358;-86
2022/01/31 05:24:36;;;;;;;2.80;1.40;;;;;;;1.51;74.51;100008.36;107788;1246;59864;-75
2022/01/31 05:27:05;;;;;;;0.90;0.90;;;;;;;1.53;74.40;100018.94;107639;1246;61804;-77
2022/01/31 05:29:34;;;;;;;2.80;1.50;;;;;;;1.65;73.78;100011.86;107660;1245;74431;-77
2022/01/31 05:32:04;;;;;;;4.40;2.00;;;;;;;1.70;73.32;100018.14;107601;1246;73582;-77
2022/01/31 05:34:33;;;;;;;2.60;1.60;;;;;;;1.69;73.49;100019.05;107709;1246;69081;-77
2022/01/31 05:37:03;;;;;;;6.20;1.80;;;;;;;1.68;73.89;100014.64;107519;1247;71009;-77
2022/01/31 05:39:32;;;;;;;3.40;2.00;;;;;;;1.65;74.25;100014.25;107540;1247;59823;-75
2022/01/31 05:42:01;;;;;;;3.20;1.70;;;;;;;1.65;74.31;100021.81;107563;1246;60666;-78
2022/01/31 05:44:29;;;;;;;2.80;1.50;;;;;;;1.67;74.16;100024.10;107675;1247;74032;-75
2022/01/31 05:47:00;;;;;;;3.70;1.90;;;;;;;1.62;74.36;100027.77;107622;1246;69586;-75
2022/01/31 05:49:32;;;;;;;4.20;1.90;;;;;;;1.61;74.66;100023.70;107626;1246;69046;-77
2022/01/31 05:52:06;;;;;;;3.70;1.60;;;;;;;1.60;74.66;100032.32;107692;1245;73330;-75
2022/01/31 05:54:39;;;;;;;4.10;1.90;;;;;;;1.58;74.82;100032.42;107582;1246;59596;-76
2022/01/31 05:57:09;;;;;;;4.00;1.80;;;;;;;1.61;74.59;100025.08;107701;1246;62372;-76
2022/01/31 05:59:40;;;;;;;3.90;1.70;;;;;;;1.69;74.48;100023.52;107536;1247;72719;-74
2022/01/31 06:02:10;;;;;;;4.70;2.20;;;;;;;1.67;74.73;100019.16;108499;1246;72051;-77
2022/01/31 06:04:39;;;;;;;2.40;1.60;;;;;;;1.68;74.89;100014.45;108598;1246;69115;-74
2022/01/31 06:07:08;;;;;;;6.60;2.40;;;;;;;1.68;74.77;100015.84;107577;1246;74824;-74
2022/01/31 06:09:37;;;;;;;7.10;2.60;;;;;;;1.70;74.59;100015.91;107730;1246;59568;-77
2022/01/31 06:12:10;;;;;;;4.80;2.50;;;;;;;1.70;74.48;100012.66;107637;1246;61298;-77
2022/01/31 06:14:39;;;;;;;3.40;2.30;;;;;;;1.72;74.58;100009.80;108723;1246;75289;-76
2022/01/31 06:17:08;;;;;;;5.60;2.50;;;;;;;1.72;74.50;100008.95;107629;1246;70641;-78
2022/01/31 06:19:37;;;;;;;4.70;2.30;;;;;;;1.77;74.57;100013.70;107641;1246;68695;-76
2022/01/31 06:22:06;;;;;;;6.50;2.60;;;;;;;1.80;74.14;100014.71;107649;1246;72354;-78
2022/01/31 06:24:35;;;;;;;4.70;2.30;;;;;;;1.80;74.23;100012.66;107642;1245;59603;-79
2022/01/31 06:27:13;;;;;;;8.10;3.00;;;;;;;1.85;74.02;100013.80;107760;1247;60471;-81
2022/01/31 06:29:42;;;;;;;6.60;3.60;;;;;;;1.87;73.66;100012.50;107728;1246;74399;-76
2022/01/31 06:32:13;;;;;;;9.90;3.80;;;;;;;1.91;73.27;100016.14;107817;1247;70389;-81
2022/01/31 06:34:42;;;;;;;6.10;3.00;;;;;;;1.94;72.34;100023.20;107598;1247;69744;-81
2022/01/31 06:37:11;;;;;;;5.20;2.60;;;;;;;2.01;71.59;100027.33;107828;1247;72527;-77
2022/01/31 06:39:40;;;;;;;4.20;2.00;;;;;;;2.06;70.93;100031.56;107464;1246;59564;-77
2022/01/31 06:42:09;;;;;;;4.80;2.10;;;;;;;2.12;70.22;100038.31;107830;1246;59052;-83
2022/01/31 06:44:39;;;;;;;5.30;2.50;;;;;;;2.18;69.45;100035.27;107585;1246;72654;-81
2022/01/31 06:47:09;;;;;;;5.60;2.20;;;;;;;2.20;69.13;100030.18;107707;1245;72070;-78
2022/01/31 06:49:38;;;;;;;6.70;2.30;;;;;;;2.25;69.36;100036.46;107609;1246;71962;-81
2022/01/31 06:52:07;;;;;;;6.30;2.60;;;;;;;2.23;69.32;100035.52;107592;1247;74641;-81
2022/01/31 06:54:36;;;;;;;6.10;2.80;;;;;;;2.24;69.90;100038.91;107572;1247;60059;-83
2022/01/31 06:57:06;;;;;;;7.30;2.80;;;;;;;2.22;69.99;100045.23;107561;1246;61072;-80
2022/01/31 06:59:35;;;;;;;5.40;2.50;;;;;;;2.24;70.34;100048.02;107650;1246;75052;-83
2022/01/31 07:02:04;;;;;;;6.10;2.40;;;;;;;2.30;70.26;100047.91;107734;1247;70207;-80
2022/01/31 07:04:33;;;;;;;4.30;2.30;;;;;;;2.25;70.69;100047.61;107764;1246;70401;-83
2022/01/31 07:07:03;;;;;;;9.00;2.60;;;;;;;2.28;70.71;100048.84;107554;1246;73914;-85
2022/01/31 07:09:35;;;;;;;3.40;2.00;;;;;;;2.30;70.61;100056.14;107685;1245;60924;-81
2022/01/31 07:12:09;;;;;;;6.20;3.00;;;;;;;2.31;70.66;100050.60;107611;1246;59629;-82
2022/01/31 07:14:38;;;;;;;5.10;1.90;;;;;;;2.32;70.72;100059.33;107581;1246;71705;-82
2022/01/31 07:17:07;;;;;;;5.50;2.60;;;;;;;2.34;70.28;100058.16;107457;1246;69304;-81
2022/01/31 07:19:39;;;;;;;8.60;3.50;;;;;;;2.40;69.78;100062.35;107658;1246;69258;-83
2022/01/31 07:22:12;;;;;;;5.50;2.60;;;;;;;2.41;70.16;100049.94;107686;1246;72054;-79
2022/01/31 07:24:46;;;;;;;9.80;3.20;;;;;;;2.49;70.10;100047.65;107709;1246;60477;-76
2022/01/31 07:27:15;;;;;;;8.20;3.60;;;;;;;2.52;69.79;100050.76;107850;1246;60792;-84
2022/01/31 07:29:45;;;;;;;7.40;3.10;;;;;;;2.61;69.45;100055.14;107564;1247;74543;-80
2022/01/31 07:32:15;;;;;;;7.10;3.10;;;;;;;2.63;69.12;100044.06;107544;1247;71300;-81
2022/01/31 07:34:46;;;;;;;9.00;3.20;;;;;;;2.69;68.87;100039.95;107433;1246;70992;-82
2022/01/31 07:37:15;;;;;;;7.60;3.40;;;;;;;2.70;69.35;100035.96;107426;1246;74642;-79
2022/01/31 07:39:44;;;;;;;9.00;4.10;;;;;;;2.68;69.64;100037.97;107573;1246;60301;-77
2022/01/31 07:42:13;;;;;;;8.20;3.10;;;;;;;2.69;69.88;100038.27;107512;1247;59753;-82
2022/01/31 07:44:53;;;;;;;8.20;2.80;;;;;;;2.72;70.08;100043.10;107648;1246;73754;-80
2022/01/31 07:47:22;;;;;;;7.10;3.60;;;;;;;2.71;69.52;100044.00;107538;1246;69984;-76
2022/01/31 07:49:51;;;;;;;8.10;3.70;;;;;;;2.73;70.82;100040.27;107609;1246;69538;-78
2022/01/31 07:52:21;;;;;;;4.80;2.40;;;;;;;2.80;70.51;100046.45;107592;1246;74348;-80
2022/01/31 07:54:51;;;;;;;5.90;3.50;;;;;;;2.81;69.78;100050.84;107504;1246;60594;-76
2022/01/31 07:57:23;;;;;;;6.70;3.60;;;;;;;2.88;69.55;100054.96;107747;1246;61250;-81
2022/01/31 08:00:03;;;;;;;7.20;4.00;;;;;;;2.86;69.59;100058.21;107657;1246;75261;-82
2022/01/31 08:02:41;;;;;;;6.20;2.90;;;;;;;2.87;70.52;100051.60;107538;1246;69963;-83
2022/01/31 08:05:11;;;;;;;5.10;2.80;;;;;;;2.92;69.46;100058.91;107555;1246;67908;-85
2022/01/31 08:07:40;;;;;;;6.80;3.40;;;;;;;2.97;69.38;100058.35;107882;1245;73154;-80
2022/01/31 08:10:09;;;;;;;5.60;3.60;;;;;;;2.97;68.86;100055.88;107827;1245;60001;-84
2022/01/31 08:12:41;;;;;;;6.40;3.60;;;;;;;2.97;68.70;100053.88;107991;1247;61198;-83
2022/01/31 08:15:19;;;;;;;6.00;3.70;;;;;;;2.96;69.39;100055.48;107909;1245;73385;-86
2022/01/31 08:17:47;;;;;;;11.50;3.40;;;;;;;2.95;69.26;100061.89;107920;1246;73300;-85
2022/01/31 08:20:17;;;;;;;6.20;3.50;;;;;;;2.99;68.86;100067.17;107670;1246;69215;-85
2022/01/31 08:22:45;;;;;;;6.60;3.60;;;;;;;2.99;68.51;100067.35;107781;1246;73961;-83
2022/01/31 08:25:15;;;;;;;10.00;3.80;;;;;;;2.92;69.29;100067.48;107731;1246;60462;-81
2022/01/31 08:27:49;;;;;;;8.70;3.70;;;;;;;2.92;70.14;100074.21;107697;1246;60355;-84
2022/01/31 08:30:23;;;;;;;6.30;4.10;;;;;;;2.94;69.49;100082.73;107790;1246;75471;-85
2022/01/31 08:33:01;;;;;;;6.50;2.70;;;;;;;2.97;68.99;100072.74;107831;1246;73790;-88
2022/01/31 08:35:48;;;;;;;8.70;3.60;;;;;;;2.96;69.47;100070.59;107907;1246;70293;-88
2022/01/31 08:38:18;;;;;;;6.70;3.00;;;;;;;2.99;69.11;100072.86;107888;1246;74697;-85
2022/01/31 08:40:47;;;;;;;4.90;2.90;;;;;;;3.01;68.92;100078.58;107831;1246;59324;-82
2022/01/31 08:43:17;;;;;;;7.80;4.10;;;;;;;2.99;69.02;100077.81;107832;1245;59414;-88
2022/01/31 08:45:47;;;;;;;10.10;4.20;;;;;;;2.96;69.45;100080.91;107890;1246;75429;-88
2022/01/31 08:48:17;;;;;;;5.40;2.90;;;;;;;3.01;69.28;100086.83;107759;1246;69988;-86
2022/01/31 08:50:46;;;;;;;6.70;3.20;;;;;;;3.05;68.81;100086.80;107868;1247;67922;-81
2022/01/31 08:53:15;;;;;;;7.80;3.70;;;;;;;3.05;68.96;100080.28;107672;1247;72002;-83
2022/01/31 08:55:52;;;;;;;6.60;3.60;;;;;;;3.08;69.80;100075.80;107872;1246;59692;-81
2022/01/31 08:58:22;;;;;;;8.90;3.40;;;;;;;3.16;68.86;100079.17;107809;1246;61263;-86
2022/01/31 09:01:00;;;;;;;6.80;3.30;;;;;;;3.15;69.29;100080.41;107703;1246;75004;-88
2022/01/31 09:06:09;;;;;;;7.40;3.90;;;;;;;3.31;69.45;100067.21;108091;1246;68798;-86
2022/01/31 09:08:39;;;;;;;9.10;4.20;;;;;;;3.43;69.68;100056.08;107785;1245;72927;-88
2022/01/31 09:11:09;;;;;;;7.70;4.10;;;;;;;3.57;69.26;100049.68;107913;1246;59576;-86
2022/01/31 09:13:38;;;;;;;12.00;4.80;;;;;;;3.70;69.29;100039.46;108029;1246;60257;-86
2022/01/31 09:16:09;;;;;;;13.90;6.50;;;;;;;3.84;69.69;100032.00;107636;1247;73311;-87
2022/01/31 09:18:38;;;;;;;8.70;5.20;;;;;;;3.88;69.62;100026.61;107936;1246;71404;-85
2022/01/31 09:21:06;;;;;;;8.00;3.90;;;;;;;3.89;67.90;100020.33;107737;1246;69950;-89
2022/01/31 09:23:37;;;;;;;9.10;4.10;;;;;;;3.99;68.41;100021.84;107993;1246;74834;-86
2022/01/31 09:26:07;;;;;;;9.50;5.00;;;;;;;4.09;68.33;100023.04;107722;1246;63694;-86
2022/01/31 09:28:37;;;;;;;7.70;3.80;;;;;;;4.24;65.63;100017.19;108031;1246;61133;-79
2022/01/31 09:31:06;;;;;;;21.90;8.20;;;;;;;4.37;64.16;100013.99;107938;1246;74242;-84
2022/01/31 09:33:35;;;;;;;20.60;6.10;;;;;;;4.45;65.64;100008.71;107858;1246;73091;-87
2022/01/31 09:36:05;;;;;;;13.50;4.20;;;;;;;4.52;65.09;100007.08;107953;1246;71629;-86
2022/01/31 09:38:34;;;;;;;7.80;3.30;;;;;;;4.60;64.62;100001.48;108244;1245;75860;-86
2022/01/31 09:41:03;;;;;;;8.90;4.20;;;;;;;4.65;63.85;100002.17;108009;1246;59611;-84
2022/01/31 09:47:07;;;;;;;;;;;;;;;;;;;;;
2022/01/31 09:49:26;;;;;;;6.70;3.10;;;;;;;4.83;59.48;99991.98;107619;1247;71580;-91
2022/01/31 09:51:56;;;;;;;29.10;8.60;;;;;;;4.83;60.79;99992.48;107521;1247;70893;-88
2022/01/31 09:54:27;;;;;;;10.90;4.60;;;;;;;4.91;60.75;99987.90;107676;1246;74478;-84
2022/01/31 09:56:57;;;;;;;10.20;4.00;;;;;;;4.98;58.16;99986.43;107959;1245;59866;-87
2022/01/31 09:59:26;;;;;;;9.40;4.50;;;;;;;5.00;58.16;99985.25;107795;1246;60154;-88
2022/01/31 10:01:57;;;;;;;7.60;4.10;;;;;;;5.00;57.91;99985.91;107699;1246;71752;-86
2022/01/31 10:04:35;;;;;;;7.40;3.30;;;;;;;5.00;58.02;99983.19;107861;1246;71442;-87
2022/01/31 10:07:05;;;;;;;8.40;3.50;;;;;;;5.04;56.03;99976.06;107837;1246;70909;-82
2022/01/31 10:09:34;;;;;;;7.80;3.10;;;;;;;5.09;55.58;99982.80;107553;1246;72525;-78
2022/01/31 10:17:45;;;;;;;7.20;4.00;;;;;;;5.54;49.28;99967.73;108005;1245;74296;-78
2022/01/31 10:20:35;;;;;;;7.70;3.10;;;;;;;5.63;48.05;99960.13;108042;1246;71156;-81
2022/01/31 10:23:13;;;;;;;5.20;2.60;;;;;;;5.67;46.46;99970.75;107806;1246;69150;-75
2022/01/31 10:25:44;;;;;;;5.50;2.30;;;;;;;5.72;47.45;99971.43;107529;1246;72478;-77
2022/01/31 10:28:19;;;;;;;6.80;2.20;;;;;;;5.79;47.23;99971.17;107628;1245;58911;-81
2022/01/31 10:30:52;;;;;;;5.60;2.00;;;;;;;5.81;47.24;99974.15;107537;1246;60590;-82
2022/01/31 10:33:25;;;;;;;6.00;3.00;;;;;;;5.81;47.02;99981.77;107643;1246;74149;-82
2022/01/31 10:35:54;;;;;;;6.50;3.20;;;;;;;5.82;47.68;99985.14;107563;1246;72579;-78
2022/01/31 10:38:32;;;;;;;3.80;2.20;;;;;;;5.89;47.77;99975.57;107442;1247;70862;-80
2022/01/31 10:44:42;;;;;;;4.30;1.80;;;;;;;6.31;43.02;99967.98;107422;1246;62277;-83
2022/01/31 10:52:33;;;;;;;3.70;2.00;;;;;;;6.88;38.65;99958.91;107585;1246;71559;-81
2022/01/31 10:55:15;;;;;;;2.90;1.60;;;;;;;6.91;37.87;99958.18;107601;1246;71538;-86
2022/01/31 10:58:02;;;;;;;3.80;1.50;;;;;;;6.81;39.51;99942.27;107672;1246;73366;-86
2022/01/31 11:00:37;;;;;;;2.70;1.30;;;;;;;6.71;38.32;99937.79;107560;1247;60453;-86
2022/01/31 11:03:33;;;;;;;4.40;1.90;;;;;;;6.48;40.14;99937.77;107640;1245;61009;-80
2022/01/31 11:06:08;;;;;;;5.50;2.20;;;;;;;6.50;39.94;99921.21;107453;1246;74130;-83
2022/01/31 11:08:38;;;;;;;2.90;1.50;;;;;;;6.76;39.98;99929.50;107665;1245;72084;-81
2022/01/31 11:11:07;;;;;;;2.80;1.70;;;;;;;7.04;37.90;99918.89;107626;1246;69316;-76
2022/01/31 11:13:38;;;;;;;3.10;1.50;;;;;;;7.14;39.31;99912.77;107670;1246;72336;-82
2022/01/31 11:16:09;;;;;;;6.20;2.50;;;;;;;7.41;38.42;99916.05;107830;1246;59576;-80
2022/01/31 11:18:42;;;;;;;3.60;1.80;;;;;;;7.37;38.16;99920.16;107707;1247;57993;-81
2022/01/31 11:21:12;;;;;;;7.70;1.90;;;;;;;7.46;37.61;99922.80;107901;1246;71500;-81
2022/01/31 11:23:49;;;;;;;3.70;1.90;;;;;;;7.67;37.69;99923.05;108175;1245;72332;-77
2022/01/31 11:26:23;;;;;;;3.50;1.50;;;;;;;7.82;37.97;99920.91;108392;1245;69982;-84
2022/01/31 11:28:54;;;;;;;7.80;2.40;;;;;;;8.21;35.55;99924.23;107480;1246;72000;-83
2022/01/31 11:31:26;;;;;;;8.20;3.60;;;;;;;8.45;34.95;99923.15;107703;1246;59549;-82
2022/01/31 11:33:58;;;;;;;6.10;2.50;;;;;;;8.35;37.78;99926.49;107818;1245;61167;-81
2022/01/31 11:36:27;;;;;;;3.20;1.80;;;;;;;8.17;36.74;99921.59;107732;1246;74960;-80
2022/01/31 11:38:58;;;;;;;6.10;2.70;;;;;;;7.87;35.30;99924.13;107375;1246;73681;-78
2022/01/31 11:41:31;;;;;;;9.20;3.10;;;;;;;7.55;37.19;99916.05;108014;1245;70929;-81
2022/01/31 11:44:13;;;;;;;10.90;4.30;;;;;;;7.46;37.94;99918.50;107662;1246;73509;-80
2022/01/31 11:46:42;;;;;;;44.80;13.50;;;;;;;7.33;37.97;99921.33;107693;1246;59611;-76
2022/01/31 11:49:15;;;;;;;10.90;3.70;;;;;;;7.11;37.75;99921.12;107637;1246;60910;-80
2022/01/31 11:52:07;;;;;;;7.70;2.50;;;;;;;7.37;37.11;99919.81;107905;1246;73675;-80
2022/01/31 11:55:01;;;;;;;3.40;1.70;;;;;;;7.49;36.36;99916.16;107985;1246;72263;-81
2022/01/31 11:57:34;;;;;;;6.80;2.20;;;;;;;7.31;35.26;99917.47;108011;1246;69749;-82
2022/01/31 12:00:12;;;;;;;9.40;3.60;;;;;;;7.16;36.03;99913.54;107927;1246;73990;-82
2022/01/31 12:02:52;;;;;;;9.00;3.70;;;;;;;6.98;36.44;99911.16;107873;1246;59968;-84
2022/01/31 12:05:31;;;;;;;10.20;4.70;;;;;;;6.78;36.66;99917.23;107902;1246;59733;-86
2022/01/31 12:08:20;;;;;;;9.20;3.00;;;;;;;6.57;37.55;99908.63;107975;1245;75523;-83
2022/01/31 12:10:57;;;;;;;6.50;2.60;;;;;;;6.40;37.00;99917.95;107985;1246;69718;-83
2022/01/31 12:13:53;;;;;;;8.80;2.50;;;;;;;6.29;37.77;99917.45;107949;1245;70636;-84